Quathiaski Cove, Canada
Current Conditions -  °F | °C
As of 8:04 AM on Thursday 27 Nov 2014 (Local Time) from CYBL Reporting Station
Haze Haze  
Wind Chill: 48°   Ceiling: 1300
Heat Index: 48°   Visibility: 3mi
Dew Point: 48°   Wind: 0mph
Humidity: 100%   Direction: NA
Pressure: 29.59"   Gusts: NA
Location:  50.05°N, 125.18°W
Report Text: CYBL 271604Z 00000KT 3SM R12/3000FT/D BR SCT002 BKN013 BKN060 09/09 A2959 RMK SF3SC2SC2 VIS SW-N 1/2 SLP021
Loading
Personal Weather Stations






























Interactive Weather Map New forecast layout! Learn more

10-Day Weather Forecast

Advertisements
Track Severe Weather on mobile